sensor_id;sensor_type;location;lat;lon;timestamp;temperature;humidity
1329;DHT22;658;48.820;9.354;2023-04-15T00:01:59;21.50;37.80
1329;DHT22;658;48.820;9.354;2023-04-15T00:06:00;21.50;37.80
1329;DHT22;658;48.820;9.354;2023-04-15T00:10:00;21.50;37.90
1329;DHT22;658;48.820;9.354;2023-04-15T00:14:04;21.50;37.90
1329;DHT22;658;48.820;9.354;2023-04-15T00:18:05;21.50;37.90
1329;DHT22;658;48.820;9.354;2023-04-15T00:22:09;21.40;37.90
1329;DHT22;658;48.820;9.354;2023-04-15T00:26:12;21.40;37.90
1329;DHT22;658;48.820;9.354;2023-04-15T00:30:13;21.40;38.00
1329;DHT22;658;48.820;9.354;2023-04-15T00:34:14;21.40;38.00
1329;DHT22;658;48.820;9.354;2023-04-15T00:38:19;21.30;38.00
1329;DHT22;658;48.820;9.354;2023-04-15T00:42:19;21.30;38.00
1329;DHT22;658;48.820;9.354;2023-04-15T00:46:21;21.30;38.00
1329;DHT22;658;48.820;9.354;2023-04-15T00:50:22;21.30;38.00
1329;DHT22;658;48.820;9.354;2023-04-15T00:54:22;21.30;38.00
1329;DHT22;658;48.820;9.354;2023-04-15T00:58:23;21.20;38.00
1329;DHT22;658;48.820;9.354;2023-04-15T01:02:26;21.20;38.00
1329;DHT22;658;48.820;9.354;2023-04-15T01:06:30;21.20;38.10
1329;DHT22;658;48.820;9.354;2023-04-15T01:10:32;21.20;38.10
1329;DHT22;658;48.820;9.354;2023-04-15T01:14:35;21.10;38.10
1329;DHT22;658;48.820;9.354;2023-04-15T01:18:39;21.10;38.10
1329;DHT22;658;48.820;9.354;2023-04-15T01:22:40;21.20;38.20
1329;DHT22;658;48.820;9.354;2023-04-15T01:26:44;21.10;38.20
1329;DHT22;658;48.820;9.354;2023-04-15T01:30:45;21.10;38.20
1329;DHT22;658;48.820;9.354;2023-04-15T01:34:46;21.10;38.20
1329;DHT22;658;48.820;9.354;2023-04-15T01:38:47;21.10;38.20
1329;DHT22;658;48.820;9.354;2023-04-15T01:42:50;21.10;38.20
1329;DHT22;658;48.820;9.354;2023-04-15T01:46:51;21.10;38.80
1329;DHT22;658;48.820;9.354;2023-04-15T01:50:53;21.00;38.20
1329;DHT22;658;48.820;9.354;2023-04-15T01:54:54;21.00;38.80
1329;DHT22;658;48.820;9.354;2023-04-15T01:58:59;21.00;38.20
1329;DHT22;658;48.820;9.354;2023-04-15T02:03:00;21.00;38.30
1329;DHT22;658;48.820;9.354;2023-04-15T02:07:01;21.00;38.40
1329;DHT22;658;48.820;9.354;2023-04-15T02:11:01;20.90;38.20
1329;DHT22;658;48.820;9.354;2023-04-15T02:15:02;20.90;38.50
1329;DHT22;658;48.820;9.354;2023-04-15T02:19:03;20.90;38.30
1329;DHT22;658;48.820;9.354;2023-04-15T02:23:03;20.90;38.30
1329;DHT22;658;48.820;9.354;2023-04-15T02:27:09;20.90;38.40
1329;DHT22;658;48.820;9.354;2023-04-15T02:31:09;20.90;38.40
1329;DHT22;658;48.820;9.354;2023-04-15T02:35:10;20.80;38.30
1329;DHT22;658;48.820;9.354;2023-04-15T02:39:13;20.80;38.40
1329;DHT22;658;48.820;9.354;2023-04-15T02:43:16;20.80;38.40
1329;DHT22;658;48.820;9.354;2023-04-15T02:47:19;20.80;38.40
1329;DHT22;658;48.820;9.354;2023-04-15T02:51:20;20.80;38.50
1329;DHT22;658;48.820;9.354;2023-04-15T02:55:21;20.70;38.40
1329;DHT22;658;48.820;9.354;2023-04-15T02:59:24;20.80;38.50
1329;DHT22;658;48.820;9.354;2023-04-15T03:03:25;20.70;38.40
1329;DHT22;658;48.820;9.354;2023-04-15T03:07:27;20.70;38.50
1329;DHT22;658;48.820;9.354;2023-04-15T03:11:28;20.70;38.50
1329;DHT22;658;48.820;9.354;2023-04-15T03:15:29;20.70;38.50
1329;DHT22;658;48.820;9.354;2023-04-15T03:19:29;20.70;38.50
1329;DHT22;658;48.820;9.354;2023-04-15T03:23:30;20.70;38.50
1329;DHT22;658;48.820;9.354;2023-04-15T03:27:31;20.60;38.50
1329;DHT22;658;48.820;9.354;2023-04-15T03:31:31;20.60;38.50
1329;DHT22;658;48.820;9.354;2023-04-15T03:35:32;20.60;38.60
1329;DHT22;658;48.820;9.354;2023-04-15T03:39:35;20.60;38.50
1329;DHT22;658;48.820;9.354;2023-04-15T03:43:36;20.60;38.50
1329;DHT22;658;48.820;9.354;2023-04-15T03:47:39;20.60;38.60
1329;DHT22;658;48.820;9.354;2023-04-15T03:51:39;20.60;38.70
1329;DHT22;658;48.820;9.354;2023-04-15T03:55:40;20.60;38.70
1329;DHT22;658;48.820;9.354;2023-04-15T03:59:40;20.60;38.60
1329;DHT22;658;48.820;9.354;2023-04-15T04:03:45;20.50;38.60
1329;DHT22;658;48.820;9.354;2023-04-15T04:07:46;20.50;38.60
1329;DHT22;658;48.820;9.354;2023-04-15T04:11:46;20.50;38.60
1329;DHT22;658;48.820;9.354;2023-04-15T04:15:47;20.50;38.60
1329;DHT22;658;48.820;9.354;2023-04-15T04:19:50;20.50;38.60
1329;DHT22;658;48.820;9.354;2023-04-15T04:23:50;20.50;38.60
1329;DHT22;658;48.820;9.354;2023-04-15T04:27:51;20.50;38.70
1329;DHT22;658;48.820;9.354;2023-04-15T04:31:52;20.50;38.70
1329;DHT22;658;48.820;9.354;2023-04-15T04:35:52;20.40;38.60
1329;DHT22;658;48.820;9.354;2023-04-15T04:39:53;20.40;38.70
1329;DHT22;658;48.820;9.354;2023-04-15T04:43:53;20.40;38.60
1329;DHT22;658;48.820;9.354;2023-04-15T04:47:56;20.40;38.70
1329;DHT22;658;48.820;9.354;2023-04-15T04:51:57;20.40;38.70
1329;DHT22;658;48.820;9.354;2023-04-15T04:55:57;20.40;38.70
1329;DHT22;658;48.820;9.354;2023-04-15T05:00:01;20.40;39.30
1329;DHT22;658;48.820;9.354;2023-04-15T05:04:04;20.40;38.70
1329;DHT22;658;48.820;9.354;2023-04-15T05:08:09;20.40;38.80
1329;DHT22;658;48.820;9.354;2023-04-15T05:12:13;20.40;38.80
1329;DHT22;658;48.820;9.354;2023-04-15T05:16:18;20.40;38.80
1329;DHT22;658;48.820;9.354;2023-04-15T05:20:20;20.30;38.70
1329;DHT22;658;48.820;9.354;2023-04-15T05:24:20;20.30;38.80
1329;DHT22;658;48.820;9.354;2023-04-15T05:28:21;20.30;38.80
1329;DHT22;658;48.820;9.354;2023-04-15T05:32:24;20.30;38.80
1329;DHT22;658;48.820;9.354;2023-04-15T05:36:25;20.30;38.80
1329;DHT22;658;48.820;9.354;2023-04-15T05:40:25;20.30;38.80
1329;DHT22;658;48.820;9.354;2023-04-15T05:44:26;20.30;38.90
1329;DHT22;658;48.820;9.354;2023-04-15T05:48:29;20.30;38.80
1329;DHT22;658;48.820;9.354;2023-04-15T05:52:33;20.30;39.40
1329;DHT22;658;48.820;9.354;2023-04-15T05:56:33;20.30;38.80
1329;DHT22;658;48.820;9.354;2023-04-15T06:00:34;20.30;38.80
1329;DHT22;658;48.820;9.354;2023-04-15T06:04:38;20.30;38.80
1329;DHT22;658;48.820;9.354;2023-04-15T06:08:40;20.30;38.80
1329;DHT22;658;48.820;9.354;2023-04-15T06:12:43;20.30;38.70
1329;DHT22;658;48.820;9.354;2023-04-15T06:16:44;20.30;38.80
1329;DHT22;658;48.820;9.354;2023-04-15T06:20:47;20.30;38.70
1329;DHT22;658;48.820;9.354;2023-04-15T06:24:48;20.30;38.70
1329;DHT22;658;48.820;9.354;2023-04-15T06:28:49;20.30;38.70
1329;DHT22;658;48.820;9.354;2023-04-15T06:32:56;20.40;38.70
1329;DHT22;658;48.820;9.354;2023-04-15T06:36:56;20.40;38.70
1329;DHT22;658;48.820;9.354;2023-04-15T06:40:57;20.50;38.70
1329;DHT22;658;48.820;9.354;2023-04-15T06:44:57;20.50;38.70
1329;DHT22;658;48.820;9.354;2023-04-15T06:48:58;20.50;38.70
1329;DHT22;658;48.820;9.354;2023-04-15T06:52:59;20.50;38.70
1329;DHT22;658;48.820;9.354;2023-04-15T06:57:02;20.50;38.50
1329;DHT22;658;48.820;9.354;2023-04-15T07:01:03;20.50;38.50
1329;DHT22;658;48.820;9.354;2023-04-15T07:05:04;20.50;38.60
1329;DHT22;658;48.820;9.354;2023-04-15T07:09:05;20.50;38.50
1329;DHT22;658;48.820;9.354;2023-04-15T07:13:08;20.50;38.60
1329;DHT22;658;48.820;9.354;2023-04-15T07:17:08;20.50;38.60
1329;DHT22;658;48.820;9.354;2023-04-15T07:21:12;20.50;38.50
1329;DHT22;658;48.820;9.354;2023-04-15T07:25:12;20.60;38.60
1329;DHT22;658;48.820;9.354;2023-04-15T07:29:13;20.60;38.60
1329;DHT22;658;48.820;9.354;2023-04-15T07:33:13;20.60;38.50
1329;DHT22;658;48.820;9.354;2023-04-15T07:37:14;20.60;38.60
1329;DHT22;658;48.820;9.354;2023-04-15T07:41:18;20.60;38.60
1329;DHT22;658;48.820;9.354;2023-04-15T07:45:19;20.60;38.60
1329;DHT22;658;48.820;9.354;2023-04-15T07:49:25;20.60;38.50
1329;DHT22;658;48.820;9.354;2023-04-15T07:53:28;20.60;38.50
1329;DHT22;658;48.820;9.354;2023-04-15T07:57:30;20.60;39.00
1329;DHT22;658;48.820;9.354;2023-04-15T08:01:31;20.70;38.40
1329;DHT22;658;48.820;9.354;2023-04-15T08:05:32;20.80;38.40
1329;DHT22;658;48.820;9.354;2023-04-15T08:09:32;20.80;38.30
1329;DHT22;658;48.820;9.354;2023-04-15T08:13:36;20.80;38.20
1329;DHT22;658;48.820;9.354;2023-04-15T08:17:39;20.80;38.20
1329;DHT22;658;48.820;9.354;2023-04-15T08:21:42;20.90;38.20
1329;DHT22;658;48.820;9.354;2023-04-15T08:25:50;20.90;38.10
1329;DHT22;658;48.820;9.354;2023-04-15T08:29:50;21.00;38.10
1329;DHT22;658;48.820;9.354;2023-04-15T08:33:53;21.00;38.00
1329;DHT22;658;48.820;9.354;2023-04-15T08:37:56;21.10;38.10
1329;DHT22;658;48.820;9.354;2023-04-15T08:42:02;21.10;38.00
1329;DHT22;658;48.820;9.354;2023-04-15T08:46:07;21.20;38.50
1329;DHT22;658;48.820;9.354;2023-04-15T08:50:09;21.20;37.90
1329;DHT22;658;48.820;9.354;2023-04-15T08:54:11;21.30;37.90
1329;DHT22;658;48.820;9.354;2023-04-15T08:58:13;21.30;37.80
1329;DHT22;658;48.820;9.354;2023-04-15T09:02:13;21.30;37.80
1329;DHT22;658;48.820;9.354;2023-04-15T09:06:16;21.40;37.90
1329;DHT22;658;48.820;9.354;2023-04-15T09:10:17;21.40;37.40
1329;DHT22;658;48.820;9.354;2023-04-15T09:14:17;21.40;37.80
1329;DHT22;658;48.820;9.354;2023-04-15T09:18:34;21.40;37.70
1329;DHT22;658;48.820;9.354;2023-04-15T09:22:35;21.50;37.70
1329;DHT22;658;48.820;9.354;2023-04-15T09:26:37;21.50;38.30
1329;DHT22;658;48.820;9.354;2023-04-15T09:30:41;21.50;37.60
1329;DHT22;658;48.820;9.354;2023-04-15T09:34:45;21.60;37.50
1329;DHT22;658;48.820;9.354;2023-04-15T09:38:59;21.60;37.40
1329;DHT22;658;48.820;9.354;2023-04-15T09:43:00;21.70;37.40
1329;DHT22;658;48.820;9.354;2023-04-15T09:47:05;21.70;37.20
1329;DHT22;658;48.820;9.354;2023-04-15T09:51:05;21.70;37.10
1329;DHT22;658;48.820;9.354;2023-04-15T09:55:06;21.70;37.10
1329;DHT22;658;48.820;9.354;2023-04-15T09:59:09;21.80;37.10
1329;DHT22;658;48.820;9.354;2023-04-15T10:03:10;21.80;37.00
1329;DHT22;658;48.820;9.354;2023-04-15T10:07:11;21.90;37.00
1329;DHT22;658;48.820;9.354;2023-04-15T10:11:16;21.90;36.90
1329;DHT22;658;48.820;9.354;2023-04-15T10:19:21;22.10;36.80
1329;DHT22;658;48.820;9.354;2023-04-15T10:23:27;22.10;36.70
1329;DHT22;658;48.820;9.354;2023-04-15T10:27:30;22.10;36.60
1329;DHT22;658;48.820;9.354;2023-04-15T10:31:31;22.20;36.60
1329;DHT22;658;48.820;9.354;2023-04-15T10:35:35;22.20;36.60
1329;DHT22;658;48.820;9.354;2023-04-15T10:39:37;22.20;36.60
1329;DHT22;658;48.820;9.354;2023-04-15T10:43:38;22.30;36.60
1329;DHT22;658;48.820;9.354;2023-04-15T10:47:38;22.30;36.50
1329;DHT22;658;48.820;9.354;2023-04-15T10:51:45;22.40;36.50
1329;DHT22;658;48.820;9.354;2023-04-15T10:55:46;22.40;36.30
1329;DHT22;658;48.820;9.354;2023-04-15T11:00:13;22.50;36.30
1329;DHT22;658;48.820;9.354;2023-04-15T11:04:13;22.50;36.20
1329;DHT22;658;48.820;9.354;2023-04-15T11:08:16;22.50;36.10
1329;DHT22;658;48.820;9.354;2023-04-15T11:12:18;22.60;36.10
1329;DHT22;658;48.820;9.354;2023-04-15T11:16:18;22.60;36.80
1329;DHT22;658;48.820;9.354;2023-04-15T11:20:21;22.60;36.00
1329;DHT22;658;48.820;9.354;2023-04-15T11:24:25;22.60;36.00
1329;DHT22;658;48.820;9.354;2023-04-15T11:28:29;22.70;35.90
1329;DHT22;658;48.820;9.354;2023-04-15T11:32:30;22.70;36.00
1329;DHT22;658;48.820;9.354;2023-04-15T11:36:33;22.70;35.80
1329;DHT22;658;48.820;9.354;2023-04-15T11:40:39;22.70;35.90
1329;DHT22;658;48.820;9.354;2023-04-15T11:44:40;22.60;35.80
1329;DHT22;658;48.820;9.354;2023-04-15T11:48:45;22.60;35.80
1329;DHT22;658;48.820;9.354;2023-04-15T11:52:56;22.60;35.90
1329;DHT22;658;48.820;9.354;2023-04-15T11:56:57;22.60;36.00
1329;DHT22;658;48.820;9.354;2023-04-15T12:01:00;22.60;36.00
1329;DHT22;658;48.820;9.354;2023-04-15T12:05:07;22.70;36.00
1329;DHT22;658;48.820;9.354;2023-04-15T12:09:17;22.60;35.90
1329;DHT22;658;48.820;9.354;2023-04-15T12:13:19;22.60;35.90
1329;DHT22;658;48.820;9.354;2023-04-15T12:17:22;22.60;36.00
1329;DHT22;658;48.820;9.354;2023-04-15T12:21:32;22.50;36.00
1329;DHT22;658;48.820;9.354;2023-04-15T12:25:34;22.50;36.00
1329;DHT22;658;48.820;9.354;2023-04-15T12:29:36;22.50;36.10
1329;DHT22;658;48.820;9.354;2023-04-15T12:33:38;22.40;36.00
1329;DHT22;658;48.820;9.354;2023-04-15T12:37:40;22.40;36.00
1329;DHT22;658;48.820;9.354;2023-04-15T12:41:44;22.30;36.00
1329;DHT22;658;48.820;9.354;2023-04-15T12:45:44;22.30;36.10
1329;DHT22;658;48.820;9.354;2023-04-15T12:49:45;22.30;36.20
1329;DHT22;658;48.820;9.354;2023-04-15T12:53:46;22.30;36.30
1329;DHT22;658;48.820;9.354;2023-04-15T12:57:47;22.20;36.30
1329;DHT22;658;48.820;9.354;2023-04-15T13:01:48;22.10;36.20
1329;DHT22;658;48.820;9.354;2023-04-15T13:05:50;22.10;36.40
1329;DHT22;658;48.820;9.354;2023-04-15T13:09:50;22.10;36.40
1329;DHT22;658;48.820;9.354;2023-04-15T13:13:53;22.00;36.40
1329;DHT22;658;48.820;9.354;2023-04-15T13:17:54;22.00;36.50
1329;DHT22;658;48.820;9.354;2023-04-15T13:21:54;22.00;36.50
1329;DHT22;658;48.820;9.354;2023-04-15T13:25:55;22.00;36.60
1329;DHT22;658;48.820;9.354;2023-04-15T13:29:56;22.00;36.50
1329;DHT22;658;48.820;9.354;2023-04-15T13:33:59;21.90;36.50
1329;DHT22;658;48.820;9.354;2023-04-15T13:38:00;22.00;36.60
1329;DHT22;658;48.820;9.354;2023-04-15T13:42:00;21.90;36.50
1329;DHT22;658;48.820;9.354;2023-04-15T13:46:02;21.90;36.60
1329;DHT22;658;48.820;9.354;2023-04-15T13:50:03;21.90;36.50
1329;DHT22;658;48.820;9.354;2023-04-15T13:54:04;21.90;36.60
1329;DHT22;658;48.820;9.354;2023-04-15T13:58:07;21.90;36.50
1329;DHT22;658;48.820;9.354;2023-04-15T14:02:08;21.90;36.50
1329;DHT22;658;48.820;9.354;2023-04-15T14:06:09;21.90;36.50
1329;DHT22;658;48.820;9.354;2023-04-15T14:10:10;21.90;36.50
1329;DHT22;658;48.820;9.354;2023-04-15T14:14:10;21.90;36.60
1329;DHT22;658;48.820;9.354;2023-04-15T14:18:11;21.80;36.40
1329;DHT22;658;48.820;9.354;2023-04-15T14:22:14;21.80;36.40
1329;DHT22;658;48.820;9.354;2023-04-15T14:26:18;21.80;36.40
1329;DHT22;658;48.820;9.354;2023-04-15T14:30:19;21.80;36.40
1329;DHT22;658;48.820;9.354;2023-04-15T14:34:20;21.80;36.50
1329;DHT22;658;48.820;9.354;2023-04-15T14:38:24;21.80;36.50
1329;DHT22;658;48.820;9.354;2023-04-15T14:42:25;21.70;36.40
1329;DHT22;658;48.820;9.354;2023-04-15T14:46:28;21.70;36.50
1329;DHT22;658;48.820;9.354;2023-04-15T14:50:28;21.70;36.50
1329;DHT22;658;48.820;9.354;2023-04-15T14:54:31;21.70;36.50
1329;DHT22;658;48.820;9.354;2023-04-15T14:58:34;21.70;36.60
1329;DHT22;658;48.820;9.354;2023-04-15T15:02:35;21.60;36.50
1329;DHT22;658;48.820;9.354;2023-04-15T15:06:36;21.60;36.60
1329;DHT22;658;48.820;9.354;2023-04-15T15:10:39;21.60;36.60
1329;DHT22;658;48.820;9.354;2023-04-15T15:14:42;21.60;36.60
1329;DHT22;658;48.820;9.354;2023-04-15T15:18:43;21.60;36.60
1329;DHT22;658;48.820;9.354;2023-04-15T15:22:46;21.50;36.60
1329;DHT22;658;48.820;9.354;2023-04-15T15:26:49;21.50;36.60
1329;DHT22;658;48.820;9.354;2023-04-15T15:30:49;21.50;36.70
1329;DHT22;658;48.820;9.354;2023-04-15T15:34:53;21.50;36.60
1329;DHT22;658;48.820;9.354;2023-04-15T15:38:53;21.50;36.70
1329;DHT22;658;48.820;9.354;2023-04-15T15:42:54;21.40;36.70
1329;DHT22;658;48.820;9.354;2023-04-15T15:46:55;21.40;36.70
1329;DHT22;658;48.820;9.354;2023-04-15T15:50:55;21.40;36.80
1329;DHT22;658;48.820;9.354;2023-04-15T15:54:56;21.40;36.80
1329;DHT22;658;48.820;9.354;2023-04-15T15:58:59;21.40;36.90
1329;DHT22;658;48.820;9.354;2023-04-15T16:02:59;21.40;36.90
1329;DHT22;658;48.820;9.354;2023-04-15T16:07:00;21.40;36.90
1329;DHT22;658;48.820;9.354;2023-04-15T16:11:01;21.40;37.50
1329;DHT22;658;48.820;9.354;2023-04-15T16:15:01;21.30;36.80
1329;DHT22;658;48.820;9.354;2023-04-15T16:19:03;21.30;36.90
1329;DHT22;658;48.820;9.354;2023-04-15T16:23:12;21.30;36.90
1329;DHT22;658;48.820;9.354;2023-04-15T16:27:15;21.30;37.00
1329;DHT22;658;48.820;9.354;2023-04-15T16:31:16;21.30;37.10
1329;DHT22;658;48.820;9.354;2023-04-15T16:35:17;21.20;37.10
1329;DHT22;658;48.820;9.354;2023-04-15T16:39:17;21.20;37.20
1329;DHT22;658;48.820;9.354;2023-04-15T16:43:19;21.20;37.20
1329;DHT22;658;48.820;9.354;2023-04-15T16:47:19;21.20;37.30
1329;DHT22;658;48.820;9.354;2023-04-15T16:51:20;21.20;37.40
1329;DHT22;658;48.820;9.354;2023-04-15T16:55:21;21.10;37.40
1329;DHT22;658;48.820;9.354;2023-04-15T16:59:21;21.10;37.50
1329;DHT22;658;48.820;9.354;2023-04-15T17:03:24;21.10;37.60
1329;DHT22;658;48.820;9.354;2023-04-15T17:07:25;21.10;37.70
1329;DHT22;658;48.820;9.354;2023-04-15T17:11:26;21.10;37.70
1329;DHT22;658;48.820;9.354;2023-04-15T17:15:27;21.10;37.80
1329;DHT22;658;48.820;9.354;2023-04-15T17:19:28;21.00;37.80
1329;DHT22;658;48.820;9.354;2023-04-15T17:23:28;21.00;37.90
1329;DHT22;658;48.820;9.354;2023-04-15T17:27:29;21.00;38.00
1329;DHT22;658;48.820;9.354;2023-04-15T17:31:32;21.00;38.30
1329;DHT22;658;48.820;9.354;2023-04-15T17:35:35;20.90;38.30
1329;DHT22;658;48.820;9.354;2023-04-15T17:39:38;20.90;38.30
1329;DHT22;658;48.820;9.354;2023-04-15T17:43:39;20.90;38.50
1329;DHT22;658;48.820;9.354;2023-04-15T17:47:39;20.90;38.50
1329;DHT22;658;48.820;9.354;2023-04-15T17:51:40;20.80;38.70
1329;DHT22;658;48.820;9.354;2023-04-15T17:55:41;20.80;38.70
1329;DHT22;658;48.820;9.354;2023-04-15T17:59:44;20.80;38.80
1329;DHT22;658;48.820;9.354;2023-04-15T18:03:47;20.70;38.80
1329;DHT22;658;48.820;9.354;2023-04-15T18:07:51;20.70;38.80
1329;DHT22;658;48.820;9.354;2023-04-15T18:11:52;20.70;38.90
1329;DHT22;658;48.820;9.354;2023-04-15T18:15:58;20.80;39.00
1329;DHT22;658;48.820;9.354;2023-04-15T18:20:00;20.70;39.00
1329;DHT22;658;48.820;9.354;2023-04-15T18:24:01;20.70;39.10
1329;DHT22;658;48.820;9.354;2023-04-15T18:28:02;20.70;39.20
1329;DHT22;658;48.820;9.354;2023-04-15T18:32:05;20.70;39.20
1329;DHT22;658;48.820;9.354;2023-04-15T18:36:11;20.70;39.30
1329;DHT22;658;48.820;9.354;2023-04-15T18:40:11;20.60;39.20
1329;DHT22;658;48.820;9.354;2023-04-15T18:44:12;20.70;39.40
1329;DHT22;658;48.820;9.354;2023-04-15T18:48:17;20.60;39.40
1329;DHT22;658;48.820;9.354;2023-04-15T18:52:20;20.60;39.50
1329;DHT22;658;48.820;9.354;2023-04-15T18:56:23;20.60;39.60
1329;DHT22;658;48.820;9.354;2023-04-15T19:00:24;20.60;39.60
1329;DHT22;658;48.820;9.354;2023-04-15T19:04:24;20.60;39.70
1329;DHT22;658;48.820;9.354;2023-04-15T19:08:25;20.50;39.80
1329;DHT22;658;48.820;9.354;2023-04-15T19:12:26;20.60;40.00
1329;DHT22;658;48.820;9.354;2023-04-15T19:16:26;20.50;39.80
1329;DHT22;658;48.820;9.354;2023-04-15T19:20:27;20.50;39.90
1329;DHT22;658;48.820;9.354;2023-04-15T19:24:30;20.50;39.90
1329;DHT22;658;48.820;9.354;2023-04-15T19:28:31;20.40;39.90
1329;DHT22;658;48.820;9.354;2023-04-15T19:32:31;20.50;40.00
1329;DHT22;658;48.820;9.354;2023-04-15T19:36:32;20.50;40.10
1329;DHT22;658;48.820;9.354;2023-04-15T19:40:33;20.40;40.10
1329;DHT22;658;48.820;9.354;2023-04-15T19:44:36;20.40;40.10
1329;DHT22;658;48.820;9.354;2023-04-15T19:48:36;20.40;40.10
1329;DHT22;658;48.820;9.354;2023-04-15T19:52:39;20.40;40.20
1329;DHT22;658;48.820;9.354;2023-04-15T19:56:42;20.40;40.30
1329;DHT22;658;48.820;9.354;2023-04-15T20:00:43;20.40;40.30
1329;DHT22;658;48.820;9.354;2023-04-15T20:04:47;20.40;40.30
1329;DHT22;658;48.820;9.354;2023-04-15T20:08:50;20.40;40.40
1329;DHT22;658;48.820;9.354;2023-04-15T20:12:53;20.30;40.30
1329;DHT22;658;48.820;9.354;2023-04-15T20:16:54;20.30;40.40
1329;DHT22;658;48.820;9.354;2023-04-15T20:20:54;20.30;40.40
1329;DHT22;658;48.820;9.354;2023-04-15T20:24:55;20.30;40.50
1329;DHT22;658;48.820;9.354;2023-04-15T20:28:57;20.30;40.50
1329;DHT22;658;48.820;9.354;2023-04-15T20:32:58;20.30;40.50
1329;DHT22;658;48.820;9.354;2023-04-15T20:36:59;20.30;40.70
1329;DHT22;658;48.820;9.354;2023-04-15T20:41:03;20.30;40.60
1329;DHT22;658;48.820;9.354;2023-04-15T20:45:04;20.20;40.70
1329;DHT22;658;48.820;9.354;2023-04-15T20:49:06;20.20;40.70
1329;DHT22;658;48.820;9.354;2023-04-15T20:53:06;20.20;40.70
1329;DHT22;658;48.820;9.354;2023-04-15T20:57:07;20.20;40.80
1329;DHT22;658;48.820;9.354;2023-04-15T21:01:08;20.20;40.70
1329;DHT22;658;48.820;9.354;2023-04-15T21:05:09;20.20;41.40
1329;DHT22;658;48.820;9.354;2023-04-15T21:09:11;20.20;40.80
1329;DHT22;658;48.820;9.354;2023-04-15T21:13:12;20.20;40.90
1329;DHT22;658;48.820;9.354;2023-04-15T21:17:16;20.20;40.90
1329;DHT22;658;48.820;9.354;2023-04-15T21:21:17;20.20;40.90
1329;DHT22;658;48.820;9.354;2023-04-15T21:25:20;20.20;41.00
1329;DHT22;658;48.820;9.354;2023-04-15T21:29:21;20.20;41.00
1329;DHT22;658;48.820;9.354;2023-04-15T21:33:24;20.20;41.00
1329;DHT22;658;48.820;9.354;2023-04-15T21:37:27;20.10;41.10
1329;DHT22;658;48.820;9.354;2023-04-15T21:41:27;20.10;41.00
1329;DHT22;658;48.820;9.354;2023-04-15T21:45:28;20.10;41.10
1329;DHT22;658;48.820;9.354;2023-04-15T21:49:29;20.10;41.70
1329;DHT22;658;48.820;9.354;2023-04-15T21:53:31;20.10;41.20
1329;DHT22;658;48.820;9.354;2023-04-15T21:57:32;20.10;41.20
1329;DHT22;658;48.820;9.354;2023-04-15T22:01:37;20.10;41.30
1329;DHT22;658;48.820;9.354;2023-04-15T22:05:43;20.10;41.30
1329;DHT22;658;48.820;9.354;2023-04-15T22:09:44;20.10;41.30
1329;DHT22;658;48.820;9.354;2023-04-15T22:13:45;20.10;41.40
1329;DHT22;658;48.820;9.354;2023-04-15T22:17:48;20.10;41.60
1329;DHT22;658;48.820;9.354;2023-04-15T22:21:49;20.10;41.50
1329;DHT22;658;48.820;9.354;2023-04-15T22:25:50;20.00;41.40
1329;DHT22;658;48.820;9.354;2023-04-15T22:29:51;20.10;41.60
1329;DHT22;658;48.820;9.354;2023-04-15T22:33:54;20.10;41.50
1329;DHT22;658;48.820;9.354;2023-04-15T22:37:54;20.00;41.60
1329;DHT22;658;48.820;9.354;2023-04-15T22:41:55;20.00;41.50
1329;DHT22;658;48.820;9.354;2023-04-15T22:45:56;20.00;41.60
1329;DHT22;658;48.820;9.354;2023-04-15T22:49:56;20.00;41.50
1329;DHT22;658;48.820;9.354;2023-04-15T22:53:57;20.00;41.60
1329;DHT22;658;48.820;9.354;2023-04-15T22:58:00;20.00;41.60
1329;DHT22;658;48.820;9.354;2023-04-15T23:02:03;20.00;41.70
1329;DHT22;658;48.820;9.354;2023-04-15T23:06:06;20.00;41.70
1329;DHT22;658;48.820;9.354;2023-04-15T23:10:09;20.00;41.70
1329;DHT22;658;48.820;9.354;2023-04-15T23:14:14;20.00;41.80
1329;DHT22;658;48.820;9.354;2023-04-15T23:18:17;20.00;41.70
1329;DHT22;658;48.820;9.354;2023-04-15T23:22:20;20.00;41.60
1329;DHT22;658;48.820;9.354;2023-04-15T23:26:20;20.00;41.80
1329;DHT22;658;48.820;9.354;2023-04-15T23:30:21;20.00;41.80
1329;DHT22;658;48.820;9.354;2023-04-15T23:34:23;19.90;41.80
1329;DHT22;658;48.820;9.354;2023-04-15T23:38:27;19.90;41.70
1329;DHT22;658;48.820;9.354;2023-04-15T23:42:29;19.90;41.90
1329;DHT22;658;48.820;9.354;2023-04-15T23:46:30;19.90;41.90
1329;DHT22;658;48.820;9.354;2023-04-15T23:50:33;19.90;41.90
1329;DHT22;658;48.820;9.354;2023-04-15T23:54:38;19.90;42.00
1329;DHT22;658;48.820;9.354;2023-04-15T23:58:41;19.90;41.90
